createdAt,value
2022-10-22T00:01:48.469Z,101080.22
2022-10-22T00:04:14.916Z,101083.56
2022-10-22T00:06:42.681Z,101086.97
2022-10-22T00:09:09.390Z,101086.13
2022-10-22T00:11:36.551Z,101076.81
2022-10-22T00:14:02.994Z,101085.38
2022-10-22T00:16:29.350Z,101085.44
2022-10-22T00:18:56.113Z,101091.41
2022-10-22T00:21:22.441Z,101097.47
2022-10-22T00:23:48.836Z,101097.47
2022-10-22T00:26:15.234Z,101100.91
2022-10-22T00:28:41.657Z,101098.31
2022-10-22T00:31:08.171Z,101100.03
2022-10-22T00:33:34.578Z,101097.38
2022-10-22T00:36:00.934Z,101105.84
2022-10-22T00:38:27.545Z,101099.00
2022-10-22T00:40:53.973Z,101093.84
2022-10-22T00:43:20.521Z,101102.97
2022-10-22T00:45:47.157Z,101102.72
2022-10-22T00:48:22.115Z,101107.72
2022-10-22T00:51:03.098Z,101109.19
2022-10-22T00:53:37.758Z,101107.19
2022-10-22T00:56:05.036Z,101104.41
2022-10-22T00:58:36.353Z,101104.34
2022-10-22T01:01:03.719Z,101100.81
2022-10-22T01:03:30.321Z,101105.00
2022-10-22T01:06:02.262Z,101104.03
2022-10-22T01:08:35.321Z,101113.28
2022-10-22T01:11:20.171Z,101116.63
2022-10-22T01:14:00.255Z,101108.75
2022-10-22T01:16:37.487Z,101107.78
2022-10-22T01:19:29.033Z,101106.91
2022-10-22T01:22:24.398Z,101105.16
2022-10-22T01:25:01.993Z,101098.97
2022-10-22T01:27:57.119Z,101098.97
2022-10-22T01:30:24.688Z,101100.66
2022-10-22T01:32:58.427Z,101101.53
2022-10-22T01:35:31.048Z,101110.94
2022-10-22T01:38:00.726Z,101105.81
2022-10-22T01:40:28.891Z,101110.13
2022-10-22T01:43:03.932Z,101108.47
2022-10-22T01:45:34.795Z,101103.34
2022-10-22T01:48:22.254Z,101106.03
2022-10-22T01:51:07.068Z,101111.16
2022-10-22T01:53:53.954Z,101114.63
2022-10-22T01:56:36.390Z,101112.13
2022-10-22T01:59:19.152Z,101103.66
2022-10-22T02:02:26.880Z,101102.03
2022-10-22T02:05:06.540Z,101096.09
2022-10-22T02:07:40.364Z,101091.00
2022-10-22T02:10:09.175Z,101092.84
2022-10-22T02:12:35.688Z,101088.63
2022-10-22T02:15:03.396Z,101092.94
2022-10-22T02:17:34.289Z,101089.56
2022-10-22T02:20:10.935Z,101091.31
2022-10-22T02:22:38.032Z,101088.81
2022-10-22T02:25:05.839Z,101087.22
2022-10-22T02:27:47.677Z,101087.28
2022-10-22T02:30:20.290Z,101081.41
2022-10-22T02:33:11.528Z,101084.91
2022-10-22T02:35:40.924Z,101085.78
2022-10-22T02:38:07.997Z,101093.66
2022-10-22T02:40:34.396Z,101087.78
2022-10-22T02:43:03.676Z,101092.06
2022-10-22T02:45:30.017Z,101086.13
2022-10-22T02:47:56.769Z,101091.28
2022-10-22T02:50:23.125Z,101090.44
2022-10-22T02:52:49.479Z,101093.84
2022-10-22T02:55:15.956Z,101096.41
2022-10-22T02:57:42.674Z,101092.16
2022-10-22T03:00:11.121Z,101099.72
2022-10-22T03:02:37.476Z,101103.13
2022-10-22T03:05:05.079Z,101110.00
2022-10-22T03:07:31.527Z,101110.81
2022-10-22T03:09:58.205Z,101103.97
2022-10-22T03:12:24.564Z,101102.22
2022-10-22T03:14:50.941Z,101102.19
2022-10-22T03:17:18.836Z,101102.13
2022-10-22T03:19:45.324Z,101102.13
2022-10-22T03:22:17.603Z,101102.94
2022-10-22T03:24:47.586Z,101107.25
2022-10-22T03:27:16.767Z,101101.28
2022-10-22T03:29:44.258Z,101105.56
2022-10-22T03:32:10.610Z,101114.19
2022-10-22T03:34:36.977Z,101114.19
2022-10-22T03:37:03.570Z,101113.38
2022-10-22T03:39:33.099Z,101114.25
2022-10-22T03:42:00.048Z,101109.94
2022-10-22T03:44:27.489Z,101110.00
2022-10-22T03:46:57.478Z,101113.38
2022-10-22T03:49:26.784Z,101113.44
2022-10-22T03:51:53.105Z,101122.00
2022-10-22T03:54:19.535Z,101118.63
2022-10-22T03:56:45.965Z,101119.50
2022-10-22T03:59:13.170Z,101129.81
2022-10-22T04:01:39.528Z,101129.94
2022-10-22T04:04:05.901Z,101130.81
2022-10-22T04:06:32.215Z,101132.53
2022-10-22T04:08:59.349Z,101130.06
2022-10-22T04:11:25.772Z,101125.81
2022-10-22T04:13:52.103Z,101129.28
2022-10-22T04:16:21.795Z,101127.63
2022-10-22T04:18:50.660Z,101131.94
2022-10-22T04:21:19.294Z,101132.00
2022-10-22T04:23:47.802Z,101132.94
2022-10-22T04:26:14.817Z,101130.47
2022-10-22T04:28:41.979Z,101140.72
2022-10-22T04:31:14.585Z,101140.75
2022-10-22T04:33:41.009Z,101136.53
2022-10-22T04:36:08.788Z,101141.66
2022-10-22T04:38:35.412Z,101140.03
2022-10-22T04:41:13.972Z,101144.25
2022-10-22T04:43:43.521Z,101145.09
2022-10-22T04:46:11.036Z,101145.94
2022-10-22T04:48:39.678Z,101147.66
2022-10-22T04:51:07.560Z,101149.34
2022-10-22T04:53:37.396Z,101146.78
2022-10-22T04:56:08.971Z,101150.19
2022-10-22T04:58:35.636Z,101153.56
2022-10-22T05:01:09.687Z,101157.78
2022-10-22T05:03:36.154Z,101156.06
2022-10-22T05:06:02.709Z,101155.22
2022-10-22T05:08:29.357Z,101153.44
2022-10-22T05:10:55.711Z,101155.22
2022-10-22T05:13:22.021Z,101160.28
2022-10-22T05:15:48.354Z,101156.91
2022-10-22T05:18:17.828Z,101156.94
2022-10-22T05:20:46.694Z,101156.94
2022-10-22T05:23:13.058Z,101157.88
2022-10-22T05:25:39.598Z,101162.25
2022-10-22T05:28:06.361Z,101158.03
2022-10-22T05:30:32.709Z,101164.09
2022-10-22T05:32:59.104Z,101161.53
2022-10-22T05:35:25.450Z,101159.03
2022-10-22T05:37:52.126Z,101165.97
2022-10-22T05:40:30.120Z,101160.84
2022-10-22T05:42:58.579Z,101171.94
2022-10-22T05:45:24.928Z,101176.28
2022-10-22T05:47:51.473Z,101178.06
2022-10-22T05:50:17.834Z,101190.03
2022-10-22T05:52:44.245Z,101182.38
2022-10-22T05:55:10.612Z,101189.28
2022-10-22T05:57:36.946Z,101187.50
2022-10-22T06:00:04.165Z,101189.25
2022-10-22T06:02:30.573Z,101190.03
2022-10-22T06:04:56.964Z,101193.44
2022-10-22T06:07:23.447Z,101197.66
2022-10-22T06:09:50.276Z,101195.91
2022-10-22T06:12:16.822Z,101208.75
2022-10-22T06:14:43.189Z,101209.56
2022-10-22T06:17:11.354Z,101209.63
2022-10-22T06:19:37.969Z,101213.16
2022-10-22T06:22:05.096Z,101209.81
2022-10-22T06:24:31.489Z,101221.81
2022-10-22T06:26:57.835Z,101218.44
2022-10-22T06:29:24.530Z,101222.66
2022-10-22T06:31:50.988Z,101224.44
2022-10-22T06:34:20.584Z,101230.41
2022-10-22T06:36:47.123Z,101231.31
2022-10-22T06:39:16.109Z,101242.44
2022-10-22T06:41:42.465Z,101245.06
2022-10-22T06:44:15.005Z,101243.31
2022-10-22T06:46:43.576Z,101251.88
2022-10-22T06:49:14.040Z,101263.00
2022-10-22T06:51:40.501Z,101265.53
2022-10-22T06:54:07.106Z,101265.53
2022-10-22T06:56:33.463Z,101270.66
2022-10-22T06:59:00.387Z,101270.56
2022-10-22T07:01:29.693Z,101280.72
2022-10-22T07:03:56.109Z,101279.81
2022-10-22T07:06:23.949Z,101283.97
2022-10-22T07:08:51.434Z,101279.53
2022-10-22T07:11:20.809Z,101272.53
2022-10-22T07:13:47.980Z,101278.31
2022-10-22T07:16:15.437Z,101280.69
2022-10-22T07:18:44.298Z,101283.94
2022-10-22T07:21:12.116Z,101295.78
2022-10-22T07:23:38.910Z,101288.81
2022-10-22T07:26:09.240Z,101300.72
2022-10-22T07:28:38.768Z,101301.38
2022-10-22T07:31:06.014Z,101301.22
2022-10-22T07:33:32.792Z,101296.69
2022-10-22T07:36:01.004Z,101309.25
2022-10-22T07:38:28.501Z,101307.16
2022-10-22T07:40:55.350Z,101303.50
2022-10-22T07:43:21.741Z,101307.53
2022-10-22T07:45:48.176Z,101307.31
2022-10-22T07:48:15.063Z,101317.34
2022-10-22T07:50:41.539Z,101323.84
2022-10-22T07:53:08.026Z,101319.16
2022-10-22T07:55:35.143Z,101327.44
2022-10-22T07:58:01.737Z,101327.13
2022-10-22T08:00:28.148Z,101328.63
2022-10-22T08:02:54.502Z,101330.91
2022-10-22T08:05:20.875Z,101333.22
2022-10-22T08:07:47.340Z,101332.13
2022-10-22T08:10:13.919Z,101334.47
2022-10-22T08:12:41.566Z,101341.16
2022-10-22T08:15:08.960Z,101343.41
2022-10-22T08:17:35.719Z,101339.66
2022-10-22T08:20:02.243Z,101348.06
2022-10-22T08:22:28.729Z,101351.38
2022-10-22T08:24:55.165Z,101358.91
2022-10-22T08:27:21.548Z,101359.53
2022-10-22T08:29:48.118Z,101358.59
2022-10-22T08:32:14.667Z,101366.16
2022-10-22T08:34:41.189Z,101362.63
2022-10-22T08:37:08.520Z,101366.84
2022-10-22T08:39:35.494Z,101368.41
2022-10-22T08:42:25.802Z,101370.69
2022-10-22T08:45:07.949Z,101373.09
2022-10-22T08:47:46.828Z,101370.28
2022-10-22T08:50:17.810Z,101377.00
2022-10-22T08:52:49.615Z,101384.56
2022-10-22T08:55:17.065Z,101389.69
2022-10-22T08:58:03.240Z,101385.28
2022-10-22T09:00:29.538Z,101389.56
2022-10-22T09:03:33.242Z,101398.06
2022-10-22T09:06:08.675Z,101391.94
2022-10-22T09:08:37.197Z,101390.91
2022-10-22T09:11:31.511Z,101403.41
2022-10-22T09:13:59.521Z,101410.03
2022-10-22T09:16:49.974Z,101406.44
2022-10-22T09:19:19.720Z,101414.78
2022-10-22T09:22:11.019Z,101413.72
2022-10-22T09:24:49.576Z,101420.31
2022-10-22T09:27:23.656Z,101420.06
2022-10-22T09:29:50.276Z,101423.78
2022-10-22T09:32:17.614Z,101413.94
2022-10-22T09:34:45.766Z,101432.22
2022-10-22T09:37:12.546Z,101421.25
2022-10-22T09:39:46.080Z,101432.97
2022-10-22T09:42:16.557Z,101430.31
2022-10-22T09:44:46.234Z,101432.28
2022-10-22T09:50:41.109Z,101433.41
2022-10-22T09:53:25.190Z,101441.56
2022-10-22T09:55:58.004Z,101441.34
2022-10-22T09:58:25.369Z,101445.41
2022-10-22T10:00:59.165Z,101444.44
2022-10-22T10:03:32.062Z,101459.09
2022-10-22T10:06:04.729Z,101462.53
2022-10-22T10:08:33.379Z,101465.13
2022-10-22T10:11:06.030Z,101470.97
2022-10-22T10:13:49.335Z,101471.28
2022-10-22T10:16:30.908Z,101469.25
2022-10-22T10:19:17.321Z,101471.31
2022-10-22T10:22:17.427Z,101462.69
2022-10-22T10:25:09.400Z,101481.63
2022-10-22T10:28:02.829Z,101486.88
2022-10-22T10:30:32.464Z,101487.72
2022-10-22T10:33:20.011Z,101493.19
2022-10-22T10:36:02.993Z,101487.50
2022-10-22T10:38:48.103Z,101487.00
2022-10-22T10:41:45.053Z,101499.63
2022-10-22T10:44:17.370Z,101501.97
2022-10-22T10:47:05.679Z,101504.53
2022-10-22T10:49:36.034Z,101505.06
2022-10-22T10:52:40.402Z,101505.47
2022-10-22T10:55:29.720Z,101501.47
2022-10-22T10:58:17.644Z,101513.09
2022-10-22T11:01:02.790Z,101510.50
2022-10-22T11:03:51.501Z,101513.78
2022-10-22T11:06:23.151Z,101510.13
2022-10-22T11:09:02.326Z,101510.28
2022-10-22T11:11:38.556Z,101517.16
2022-10-22T11:14:21.042Z,101516.28
2022-10-22T11:17:14.073Z,101516.22
2022-10-22T11:20:00.538Z,101530.28
2022-10-22T11:22:50.429Z,101520.69
2022-10-22T11:25:47.865Z,101521.88
2022-10-22T11:28:17.556Z,101532.09
2022-10-22T11:30:49.473Z,101534.97
2022-10-22T11:33:24.045Z,101523.38
2022-10-22T11:35:52.398Z,101526.38
2022-10-22T11:38:23.982Z,101524.09
2022-10-22T11:41:02.837Z,101530.88
2022-10-22T11:43:51.349Z,101526.13
2022-10-22T11:46:17.645Z,101520.84
2022-10-22T11:48:44.727Z,101535.97
2022-10-22T11:51:33.953Z,101535.31
2022-10-22T11:54:03.281Z,101539.63
2022-10-22T11:56:38.789Z,101542.91
2022-10-22T11:59:28.822Z,101539.53
2022-10-22T12:01:55.924Z,101534.63
2022-10-22T12:04:39.241Z,101529.06
2022-10-22T12:07:31.676Z,101525.66
2022-10-22T12:09:58.652Z,101543.94
2022-10-22T12:12:25.118Z,101542.66
2022-10-22T12:14:59.349Z,101543.97
2022-10-22T12:17:28.105Z,101546.66
2022-10-22T12:20:02.054Z,101549.00
2022-10-22T12:22:37.038Z,101541.75
2022-10-22T12:25:15.599Z,101541.84
2022-10-22T12:27:42.331Z,101550.97
2022-10-22T12:30:18.053Z,101548.53
2022-10-22T12:32:45.173Z,101552.94
2022-10-22T12:35:17.294Z,101556.78
2022-10-22T12:37:44.011Z,101555.06
2022-10-22T12:40:18.120Z,101542.66
2022-10-22T12:43:04.967Z,101547.28
2022-10-22T12:45:33.872Z,101545.75
2022-10-22T12:48:25.213Z,101542.63
2022-10-22T12:50:58.385Z,101540.06
2022-10-22T12:53:30.613Z,101534.13
2022-10-22T12:56:01.517Z,101535.94
2022-10-22T12:58:37.248Z,101543.69
2022-10-22T13:01:04.370Z,101541.81
2022-10-22T13:03:35.080Z,101545.59
2022-10-22T13:06:19.732Z,101541.50
2022-10-22T13:09:02.193Z,101541.50
2022-10-22T13:11:34.479Z,101543.50
2022-10-22T13:14:18.626Z,101540.56
2022-10-22T13:17:03.000Z,101537.91
2022-10-22T13:19:55.812Z,101538.72
2022-10-22T13:22:34.965Z,101530.75
2022-10-22T13:25:17.099Z,101526.66
2022-10-22T13:27:45.662Z,101537.38
2022-10-22T13:30:34.050Z,101538.41
2022-10-22T13:33:06.682Z,101547.28
2022-10-22T13:35:37.288Z,101550.88
2022-10-22T13:38:18.967Z,101542.41
2022-10-22T13:40:45.842Z,101552.38
2022-10-22T13:43:12.538Z,101557.06
2022-10-22T13:45:39.678Z,101556.16
2022-10-22T13:48:06.561Z,101561.69
2022-10-22T13:50:33.044Z,101557.34
2022-10-22T13:52:59.389Z,101558.41
2022-10-22T13:55:29.094Z,101568.41
2022-10-22T13:58:06.330Z,101566.13
2022-10-22T14:00:33.002Z,101566.59
2022-10-22T14:02:59.938Z,101567.34
2022-10-22T14:05:26.368Z,101570.44
2022-10-22T14:07:53.583Z,101565.66
2022-10-22T14:10:22.713Z,101571.44
2022-10-22T14:12:52.545Z,101568.66
2022-10-22T14:15:23.957Z,101569.22
2022-10-22T14:17:57.391Z,101566.97
2022-10-22T14:20:27.670Z,101573.44
2022-10-22T14:22:54.098Z,101565.44
2022-10-22T14:25:25.958Z,101567.94
2022-10-22T14:27:52.863Z,101574.91
2022-10-22T14:30:24.937Z,101570.72
2022-10-22T14:32:51.364Z,101576.09
2022-10-22T14:35:20.547Z,101574.63
2022-10-22T14:37:47.365Z,101583.59
2022-10-22T14:40:16.660Z,101576.81
2022-10-22T14:42:47.396Z,101591.44
2022-10-22T14:45:19.048Z,101590.81
2022-10-22T14:47:45.466Z,101599.56
2022-10-22T14:50:12.207Z,101597.13
2022-10-22T14:52:38.694Z,101598.75
2022-10-22T14:55:05.672Z,101601.78
2022-10-22T14:57:32.037Z,101597.50
2022-10-22T14:59:58.667Z,101607.78
2022-10-22T15:02:26.038Z,101608.63
2022-10-22T15:04:52.501Z,101610.69
2022-10-22T15:07:20.213Z,101606.47
2022-10-22T15:09:46.778Z,101603.09
2022-10-22T15:12:13.150Z,101603.25
2022-10-22T15:14:39.484Z,101612.47
2022-10-22T15:17:05.833Z,101614.00
2022-10-22T15:19:32.386Z,101611.81
2022-10-22T15:21:58.733Z,101607.06
2022-10-22T15:24:25.123Z,101618.69
2022-10-22T15:26:53.249Z,101616.53
2022-10-22T15:29:20.185Z,101616.59
2022-10-22T15:31:51.975Z,101620.41
2022-10-22T15:34:23.174Z,101621.38
2022-10-22T15:36:50.156Z,101618.34
2022-10-22T15:39:17.352Z,101627.47
2022-10-22T15:41:43.681Z,101625.22
2022-10-22T15:44:16.324Z,101627.38
2022-10-22T15:46:42.982Z,101624.09
2022-10-22T15:49:09.608Z,101633.25
2022-10-22T15:51:36.019Z,101637.03
2022-10-22T15:54:04.406Z,101639.19
2022-10-22T15:56:34.215Z,101624.75
2022-10-22T15:59:03.918Z,101625.72
2022-10-22T16:01:32.144Z,101621.59
2022-10-22T16:04:02.728Z,101622.75
2022-10-22T16:06:38.312Z,101622.25
2022-10-22T16:09:08.699Z,101618.28
2022-10-22T16:11:36.253Z,101630.78
2022-10-22T16:14:03.698Z,101633.75
2022-10-22T16:16:33.591Z,101635.88
2022-10-22T16:19:00.245Z,101631.81
2022-10-22T16:21:26.722Z,101631.97
2022-10-22T16:23:53.159Z,101631.53
2022-10-22T16:26:19.978Z,101633.03
2022-10-22T16:28:48.332Z,101639.44
2022-10-22T16:31:17.311Z,101639.91
2022-10-22T16:33:46.480Z,101647.31
2022-10-22T16:36:18.092Z,101646.81
2022-10-22T16:38:45.759Z,101648.03
2022-10-22T16:41:18.074Z,101643.16
2022-10-22T16:43:49.754Z,101652.91
2022-10-22T16:46:17.824Z,101651.66
2022-10-22T16:48:48.894Z,101659.91
2022-10-22T16:51:17.321Z,101656.78
2022-10-22T16:53:44.221Z,101651.00
2022-10-22T16:56:15.433Z,101657.97
2022-10-22T16:58:48.054Z,101656.38
2022-10-22T17:01:17.935Z,101651.34
2022-10-22T17:03:44.774Z,101648.94
2022-10-22T17:06:11.884Z,101654.28
2022-10-22T17:08:39.534Z,101657.00
2022-10-22T17:11:07.961Z,101654.72
2022-10-22T17:13:34.653Z,101659.31
2022-10-22T17:16:05.482Z,101666.41
2022-10-22T17:18:33.083Z,101664.00
2022-10-22T17:20:59.457Z,101676.16
2022-10-22T17:23:28.455Z,101677.34
2022-10-22T17:26:03.422Z,101676.63
2022-10-22T17:28:30.275Z,101675.16
2022-10-22T17:31:14.930Z,101683.97
2022-10-22T17:33:41.272Z,101688.56
2022-10-22T17:36:12.873Z,101692.16
2022-10-22T17:38:41.744Z,101689.88
2022-10-22T17:41:12.543Z,101691.69
2022-10-22T17:43:41.094Z,101695.19
2022-10-22T17:46:10.706Z,101690.34
2022-10-22T17:48:37.205Z,101689.66
2022-10-22T17:51:07.862Z,101700.97
2022-10-22T17:53:34.500Z,101695.22
2022-10-22T17:56:07.066Z,101696.19
2022-10-22T17:58:33.634Z,101695.28
2022-10-22T18:01:00.094Z,101681.66
2022-10-22T18:03:27.824Z,101683.41
2022-10-22T18:06:07.558Z,101698.88
2022-10-22T18:08:34.353Z,101697.16
2022-10-22T18:11:01.123Z,101696.44
2022-10-22T18:13:27.637Z,101697.41
2022-10-22T18:15:55.559Z,101699.97
2022-10-22T18:18:23.669Z,101705.97
2022-10-22T18:20:51.332Z,101710.44
2022-10-22T18:23:18.536Z,101699.41
2022-10-22T18:25:46.116Z,101705.41
2022-10-22T18:28:13.146Z,101702.06
2022-10-22T18:30:42.553Z,101697.97
2022-10-22T18:33:12.256Z,101704.88
2022-10-22T18:35:38.690Z,101710.91
2022-10-22T18:38:05.245Z,101714.41
2022-10-22T18:40:32.663Z,101706.84
2022-10-22T18:42:59.013Z,101708.53
2022-10-22T18:45:25.372Z,101710.28
2022-10-22T18:47:51.910Z,101715.63
2022-10-22T18:50:18.343Z,101718.44
2022-10-22T18:52:44.957Z,101721.09
2022-10-22T18:55:12.192Z,101716.78
2022-10-22T18:57:38.898Z,101708.16
2022-10-22T19:00:05.976Z,101715.00
2022-10-22T19:02:32.497Z,101718.56
2022-10-22T19:04:58.832Z,101717.03
2022-10-22T19:07:25.235Z,101707.63
2022-10-22T19:09:51.730Z,101701.72
2022-10-22T19:12:21.424Z,101694.88
2022-10-22T19:14:48.804Z,101700.84
2022-10-22T19:17:15.333Z,101698.31
2022-10-22T19:19:43.735Z,101696.59
2022-10-22T19:22:10.093Z,101696.59
2022-10-22T19:24:36.429Z,101687.25
2022-10-22T19:27:02.817Z,101694.06
2022-10-22T19:29:29.327Z,101688.22
2022-10-22T19:31:55.733Z,101689.13
2022-10-22T19:34:22.233Z,101690.88
2022-10-22T19:36:51.540Z,101691.78
2022-10-22T19:39:18.799Z,101685.84
2022-10-22T19:41:45.182Z,101685.84
2022-10-22T19:44:11.609Z,101696.16
2022-10-22T19:46:38.308Z,101692.75
2022-10-22T19:49:04.973Z,101682.53
2022-10-22T19:51:34.239Z,101694.50
2022-10-22T19:54:03.295Z,101691.22
2022-10-22T19:56:30.438Z,101687.81
2022-10-22T19:58:57.686Z,101696.44
2022-10-22T20:01:24.532Z,101689.69
2022-10-22T20:03:50.945Z,101691.47
2022-10-22T20:06:19.571Z,101695.06
2022-10-22T20:08:46.489Z,101701.06
2022-10-22T20:11:19.575Z,101700.25
2022-10-22T20:13:49.595Z,101696.81
2022-10-22T20:16:22.900Z,101705.34
2022-10-22T20:18:49.966Z,101701.03
2022-10-22T20:21:19.182Z,101697.69
2022-10-22T20:23:46.358Z,101691.69
2022-10-22T20:26:13.389Z,101703.59
2022-10-22T20:28:39.958Z,101704.47
2022-10-22T20:31:14.985Z,101704.53
2022-10-22T20:33:41.430Z,101701.13
2022-10-22T20:36:13.127Z,101698.63
2022-10-22T20:38:40.692Z,101705.47
2022-10-22T20:41:10.201Z,101703.75
2022-10-22T20:43:36.606Z,101702.91
2022-10-22T20:46:04.345Z,101702.97
2022-10-22T20:48:31.310Z,101702.16
2022-10-22T20:50:59.039Z,101708.22
2022-10-22T20:53:25.698Z,101705.66
2022-10-22T20:55:56.630Z,101707.41
2022-10-22T20:58:24.633Z,101704.88
2022-10-22T21:00:54.641Z,101707.47
2022-10-22T21:03:21.126Z,101709.19
2022-10-22T21:05:47.649Z,101704.91
2022-10-22T21:08:17.335Z,101707.53
2022-10-22T21:10:49.416Z,101712.69
2022-10-22T21:13:16.483Z,101709.28
2022-10-22T21:15:42.911Z,101712.75
2022-10-22T21:18:09.471Z,101699.97
2022-10-22T21:20:35.929Z,101712.03
2022-10-22T21:23:03.347Z,101709.50
2022-10-22T21:25:29.758Z,101718.94
2022-10-22T21:27:56.274Z,101724.13
2022-10-22T21:30:22.686Z,101715.59
2022-10-22T21:32:49.059Z,101719.94
2022-10-22T21:35:15.566Z,101724.22
2022-10-22T21:37:42.019Z,101721.66
2022-10-22T21:40:08.979Z,101717.38
2022-10-22T21:42:35.404Z,101716.44
2022-10-22T21:45:01.888Z,101709.59
2022-10-22T21:47:28.537Z,101718.13
2022-10-22T21:49:56.169Z,101711.28
2022-10-22T21:52:23.507Z,101721.53
2022-10-22T21:54:49.833Z,101728.34
2022-10-22T21:57:16.196Z,101725.00
2022-10-22T21:59:42.928Z,101722.41
2022-10-22T22:02:09.409Z,101722.44
2022-10-22T22:04:35.844Z,101714.81
2022-10-22T22:07:02.216Z,101720.81
2022-10-22T22:09:28.735Z,101721.69
2022-10-22T22:11:55.079Z,101716.53
2022-10-22T22:14:21.560Z,101715.69
2022-10-22T22:16:47.921Z,101707.19
2022-10-22T22:19:14.555Z,101711.47
2022-10-22T22:21:41.306Z,101710.56
2022-10-22T22:24:10.831Z,101703.72
2022-10-22T22:26:37.450Z,101708.81
2022-10-22T22:29:04.364Z,101704.56
2022-10-22T22:31:32.975Z,101701.94
2022-10-22T22:34:12.699Z,101697.69
2022-10-22T22:36:41.392Z,101692.59
2022-10-22T22:39:12.322Z,101689.19
2022-10-22T22:41:38.841Z,101684.06
2022-10-22T22:44:05.618Z,101693.44
2022-10-22T22:46:32.507Z,101684.94
2022-10-22T22:48:59.104Z,101679.81
2022-10-22T22:51:25.568Z,101695.19
2022-10-22T22:53:52.385Z,101683.22
2022-10-22T22:56:22.756Z,101673.81
2022-10-22T22:58:50.100Z,101675.47
2022-10-22T23:01:22.303Z,101683.13
2022-10-22T23:03:56.649Z,101678.88
2022-10-22T23:06:25.293Z,101674.56
2022-10-22T23:08:53.537Z,101681.47
2022-10-22T23:11:22.015Z,101674.66
2022-10-22T23:13:52.772Z,101666.13
2022-10-22T23:16:21.202Z,101665.28
2022-10-22T23:18:49.311Z,101664.41
2022-10-22T23:21:18.563Z,101662.63
2022-10-22T23:23:50.085Z,101660.13
2022-10-22T23:26:23.041Z,101659.34
2022-10-22T23:28:50.325Z,101656.81
2022-10-22T23:31:19.044Z,101662.81
2022-10-22T23:33:45.982Z,101656.91
2022-10-22T23:36:12.775Z,101663.78
2022-10-22T23:38:41.256Z,101676.66
2022-10-22T23:41:08.386Z,101668.16
2022-10-22T23:43:38.240Z,101671.63
2022-10-22T23:46:06.579Z,101676.78
2022-10-22T23:48:33.517Z,101661.34
2022-10-22T23:51:13.711Z,101650.19
2022-10-22T23:53:41.265Z,101639.94
2022-10-22T23:56:15.267Z,101644.22
2022-10-22T23:58:42.647Z,101636.59
